Terminal Aerodrome Forecast
Issued by NWS

Home | Current Version | Previous Version | Text Only | Print | Product List | Glossary Off
Versions: 1 2 3 4 5 6 7 8 9 10 11 12 13 14 15 16 17 18 19 20

894
FTUS43 KGRB 271728
TAFAUW
TAF
KAUW 271728Z 2718/2818 07013G20KT P6SM BKN250
     FM280200 07009KT P6SM OVC120
     FM281000 06009KT P6SM -RA SCT040 OVC060
      TEMPO 2811/2815 6SM -RASN BKN040
     FM281500 08012KT P6SM -RA OVC070=

USA.gov is the U.S. government's official web portal to all federal, state and local government web resources and services.